Time,TemperatureF,DewpointF,PressureIn,WindDirection,WindDirectionDegrees,WindSpeedMPH,WindSpeedGustMPH,Humidity,HourlyPrecipIn,Conditions,Clouds,dailyrainin,SoftwareType,DateUTC
2013-07-10 00:01:00,72.7,71.8,29.85,West,265,0.0,0.0,97,0.00,,,0.00,Wunderground v.1.15,2013-07-10 04:01:00,
2013-07-10 00:02:00,72.7,71.8,29.85,West,265,0.0,0.0,97,0.00,,,0.00,Wunderground v.1.15,2013-07-10 04:02:00,
2013-07-10 00:03:00,72.7,71.8,29.85,West,260,0.0,0.0,97,0.00,,,0.00,Wunderground v.1.15,2013-07-10 04:03:00,
2013-07-10 00:04:00,72.6,72.0,29.85,West,260,0.0,0.0,98,0.00,,,0.00,Wunderground v.1.15,2013-07-10 04:04:00,
2013-07-10 00:08:00,72.6,72.0,29.85,West,260,0.0,1.0,98,0.00,,,0.00,Wunderground v.1.15,2013-07-10 04:08:00,
2013-07-10 00:13:00,72.5,71.6,29.85,SW,232,1.0,1.0,97,0.00,,,0.00,Wunderground v.1.15,2013-07-10 04:13:00,
2013-07-10 00:18:00,72.4,71.5,29.85,WSW,239,0.0,2.0,97,0.00,,,0.00,Wunderground v.1.15,2013-07-10 04:18:00,
2013-07-10 00:23:00,72.4,71.5,29.85,WSW,238,0.0,2.0,97,0.00,,,0.00,Wunderground v.1.15,2013-07-10 04:23:00,
2013-07-10 00:28:00,72.3,71.4,29.85,SW,228,0.0,4.0,97,0.00,,,0.00,Wunderground v.1.15,2013-07-10 04:28:00,
2013-07-10 00:34:00,72.2,71.3,29.85,SW,228,0.0,1.0,97,0.00,,,0.00,Wunderground v.1.15,2013-07-10 04:34:00,
2013-07-10 00:39:00,72.2,71.3,29.85,SSW,203,0.0,5.0,97,0.00,,,0.00,Wunderground v.1.15,2013-07-10 04:39:00,
2013-07-10 00:44:00,72.2,71.3,29.84,SSW,203,0.0,2.0,97,0.00,,,0.00,Wunderground v.1.15,2013-07-10 04:44:00,
2013-07-10 00:49:00,72.2,71.3,29.84,SSW,203,0.0,2.0,97,0.00,,,0.00,Wunderground v.1.15,2013-07-10 04:49:00,
2013-07-10 00:54:00,72.2,71.3,29.84,SSW,203,1.0,1.0,97,0.00,,,0.00,Wunderground v.1.15,2013-07-10 04:54:00,
2013-07-10 01:00:00,72.1,71.2,29.84,SSW,203,0.0,0.0,97,0.00,,,0.00,Wunderground v.1.15,2013-07-10 05:00:00,
2013-07-10 01:05:00,72.1,71.2,29.84,SSW,203,0.0,0.0,97,0.00,,,0.00,Wunderground v.1.15,2013-07-10 05:05:00,
2013-07-10 01:10:00,72.1,71.2,29.84,SSW,203,0.0,0.0,97,0.00,,,0.00,Wunderground v.1.15,2013-07-10 05:10:00,
2013-07-10 01:15:00,72.0,71.1,29.84,SSW,203,0.0,0.0,97,0.00,,,0.00,Wunderground v.1.15,2013-07-10 05:15:00,
2013-07-10 01:20:00,71.9,71.0,29.84,SSW,203,0.0,0.0,97,0.00,,,0.00,Wunderground v.1.15,2013-07-10 05:20:00,
2013-07-10 01:26:00,71.8,70.9,29.84,SSW,203,2.0,2.0,97,0.00,,,0.00,Wunderground v.1.15,2013-07-10 05:26:00,
2013-07-10 01:31:00,71.7,70.8,29.84,SSW,203,0.0,0.0,97,0.00,,,0.00,Wunderground v.1.15,2013-07-10 05:31:00,
2013-07-10 01:36:00,71.7,70.8,29.83,SSW,203,0.0,0.0,97,0.00,,,0.00,Wunderground v.1.15,2013-07-10 05:36:00,
2013-07-10 01:41:00,71.6,70.7,29.83,SSW,203,0.0,0.0,97,0.00,,,0.00,Wunderground v.1.15,2013-07-10 05:41:00,
2013-07-10 01:47:00,71.5,70.6,29.83,SSW,203,0.0,0.0,97,0.00,,,0.00,Wunderground v.1.15,2013-07-10 05:47:00,
2013-07-10 01:52:00,71.5,70.6,29.83,SSW,203,0.0,0.0,97,0.00,,,0.00,Wunderground v.1.15,2013-07-10 05:52:00,
2013-07-10 01:57:00,71.3,70.4,29.82,SSW,203,0.0,0.0,97,0.00,,,0.00,Wunderground v.1.15,2013-07-10 05:57:00,
2013-07-10 02:02:00,71.3,70.4,29.82,SSW,203,0.0,0.0,97,0.00,,,0.00,Wunderground v.1.15,2013-07-10 06:02:00,
2013-07-10 02:07:00,71.3,70.4,29.82,SSW,203,0.0,1.0,97,0.00,,,0.00,Wunderground v.1.15,2013-07-10 06:07:00,
2013-07-10 02:12:00,71.3,70.4,29.82,South,175,1.0,1.0,97,0.00,,,0.00,Wunderground v.1.15,2013-07-10 06:12:00,
2013-07-10 02:17:00,71.2,70.6,29.82,SSW,200,0.0,5.0,98,0.00,,,0.00,Wunderground v.1.15,2013-07-10 06:17:00,
2013-07-10 02:22:00,71.2,70.6,29.82,South,188,2.0,2.0,98,0.00,,,0.00,Wunderground v.1.15,2013-07-10 06:22:00,
2013-07-10 02:27:00,71.2,70.6,29.81,South,188,0.0,2.0,98,0.00,,,0.00,Wunderground v.1.15,2013-07-10 06:27:00,
2013-07-10 02:32:00,71.3,70.7,29.81,SW,224,1.0,4.0,98,0.00,,,0.00,Wunderground v.1.15,2013-07-10 06:32:00,
2013-07-10 02:37:00,71.3,70.7,29.81,WSW,247,1.0,7.0,98,0.00,,,0.00,Wunderground v.1.15,2013-07-10 06:37:00,
2013-07-10 02:42:00,71.3,70.7,29.80,SSE,156,0.0,2.0,98,0.00,,,0.00,Wunderground v.1.15,2013-07-10 06:42:00,
2013-07-10 02:47:00,71.3,70.4,29.80,SSE,156,1.0,2.0,97,0.00,,,0.00,Wunderground v.1.15,2013-07-10 06:47:00,
2013-07-10 02:52:00,71.3,70.4,29.80,SSW,196,1.0,1.0,97,0.00,,,0.00,Wunderground v.1.15,2013-07-10 06:52:00,
2013-07-10 02:57:00,71.3,70.4,29.80,SSW,196,0.0,3.0,97,0.00,,,0.00,Wunderground v.1.15,2013-07-10 06:57:00,
2013-07-10 03:02:00,71.3,70.4,29.80,South,189,1.0,3.0,97,0.00,,,0.00,Wunderground v.1.15,2013-07-10 07:02:00,
2013-07-10 03:07:00,71.3,70.4,29.80,South,184,0.0,3.0,97,0.00,,,0.00,Wunderground v.1.15,2013-07-10 07:07:00,
2013-07-10 03:13:00,71.3,70.4,29.80,South,188,2.0,2.0,97,0.00,,,0.00,Wunderground v.1.15,2013-07-10 07:13:00,
2013-07-10 03:18:00,71.3,70.4,29.80,WNW,302,0.0,3.0,97,0.00,,,0.00,Wunderground v.1.15,2013-07-10 07:18:00,
2013-07-10 03:23:00,71.3,70.4,29.80,South,169,1.0,1.0,97,0.00,,,0.00,Wunderground v.1.15,2013-07-10 07:23:00,
2013-07-10 03:28:00,71.3,70.4,29.80,South,177,1.0,3.0,97,0.00,,,0.00,Wunderground v.1.15,2013-07-10 07:28:00,
2013-07-10 03:33:00,71.3,70.4,29.80,South,177,1.0,3.0,97,0.00,,,0.00,Wunderground v.1.15,2013-07-10 07:33:00,
2013-07-10 03:38:00,71.3,70.4,29.80,South,177,0.0,3.0,97,0.00,,,0.00,Wunderground v.1.15,2013-07-10 07:38:00,
2013-07-10 03:43:00,71.3,70.4,29.80,South,183,0.0,3.0,97,0.00,,,0.00,Wunderground v.1.15,2013-07-10 07:43:00,
2013-07-10 03:48:00,71.3,70.4,29.79,SSW,207,0.0,3.0,97,0.00,,,0.00,Wunderground v.1.15,2013-07-10 07:48:00,
2013-07-10 03:53:00,71.2,70.3,29.80,SW,221,0.0,4.0,97,0.00,,,0.00,Wunderground v.1.15,2013-07-10 07:53:00,
2013-07-10 03:58:00,71.2,70.3,29.79,South,188,2.0,4.0,97,0.00,,,0.00,Wunderground v.1.15,2013-07-10 07:58:00,
2013-07-10 04:03:00,71.2,70.3,29.80,South,188,0.0,3.0,97,0.00,,,0.00,Wunderground v.1.15,2013-07-10 08:03:00,
2013-07-10 04:08:00,71.2,70.3,29.80,South,190,0.0,3.0,97,0.00,,,0.00,Wunderground v.1.15,2013-07-10 08:08:00,
2013-07-10 04:13:00,71.1,70.2,29.80,South,190,0.0,2.0,97,0.00,,,0.00,Wunderground v.1.15,2013-07-10 08:13:00,
2013-07-10 04:18:00,71.1,70.2,29.80,South,190,0.0,2.0,97,0.00,,,0.00,Wunderground v.1.15,2013-07-10 08:18:00,
2013-07-10 04:23:00,71.0,70.1,29.80,WSW,237,0.0,2.0,97,0.00,,,0.00,Wunderground v.1.15,2013-07-10 08:23:00,
2013-07-10 04:28:00,71.0,70.1,29.80,SSW,196,0.0,3.0,97,0.00,,,0.00,Wunderground v.1.15,2013-07-10 08:28:00,
2013-07-10 04:33:00,70.9,70.0,29.80,SSW,196,0.0,1.0,97,0.00,,,0.00,Wunderground v.1.15,2013-07-10 08:33:00,
2013-07-10 04:38:00,70.8,69.9,29.80,South,190,0.0,3.0,97,0.00,,,0.00,Wunderground v.1.15,2013-07-10 08:38:00,
2013-07-10 04:44:00,70.8,69.9,29.79,South,190,1.0,1.0,97,0.00,,,0.00,Wunderground v.1.15,2013-07-10 08:44:00,
2013-07-10 04:49:00,70.8,69.9,29.79,South,190,0.0,2.0,97,0.00,,,0.00,Wunderground v.1.15,2013-07-10 08:49:00,
2013-07-10 04:54:00,70.8,69.9,29.80,South,190,0.0,1.0,97,0.00,,,0.00,Wunderground v.1.15,2013-07-10 08:54:00,
2013-07-10 04:59:00,71.0,70.1,29.80,West,259,0.0,3.0,97,0.00,,,0.00,Wunderground v.1.15,2013-07-10 08:59:00,
2013-07-10 05:04:00,71.0,70.1,29.80,South,184,0.0,2.0,97,0.00,,,0.00,Wunderground v.1.15,2013-07-10 09:04:00,
2013-07-10 05:09:00,71.1,70.5,29.79,South,173,2.0,3.0,98,0.00,,,0.00,Wunderground v.1.15,2013-07-10 09:09:00,
2013-07-10 05:14:00,71.2,70.6,29.79,SSW,200,2.0,2.0,98,0.00,,,0.00,Wunderground v.1.15,2013-07-10 09:14:00,
2013-07-10 05:19:00,71.4,70.8,29.79,WSW,240,0.0,4.0,98,0.00,,,0.00,Wunderground v.1.15,2013-07-10 09:19:00,
2013-07-10 05:24:00,71.5,70.6,29.79,WSW,240,0.0,2.0,97,0.00,,,0.00,Wunderground v.1.15,2013-07-10 09:24:00,
2013-07-10 05:29:00,71.5,70.6,29.79,SSW,196,1.0,2.0,97,0.00,,,0.00,Wunderground v.1.15,2013-07-10 09:29:00,
2013-07-10 05:34:00,71.6,70.7,29.79,SSW,212,0.0,4.0,97,0.00,,,0.00,Wunderground v.1.15,2013-07-10 09:34:00,
2013-07-10 05:39:00,71.6,70.7,29.79,South,186,2.0,4.0,97,0.00,,,0.00,Wunderground v.1.15,2013-07-10 09:39:00,
2013-07-10 05:44:00,71.7,70.8,29.79,South,186,0.0,1.0,97,0.00,,,0.00,Wunderground v.1.15,2013-07-10 09:44:00,
2013-07-10 05:49:00,71.8,70.9,29.79,South,191,0.0,3.0,97,0.00,,,0.00,Wunderground v.1.15,2013-07-10 09:49:00,
2013-07-10 05:54:00,71.9,71.0,29.79,South,182,0.0,4.0,97,0.00,,,0.00,Wunderground v.1.15,2013-07-10 09:54:00,
2013-07-10 05:59:00,72.0,71.1,29.79,SSW,196,0.0,4.0,97,0.00,,,0.00,Wunderground v.1.15,2013-07-10 09:59:00,
2013-07-10 06:04:00,72.1,71.2,29.79,SSW,195,2.0,5.0,97,0.00,,,0.00,Wunderground v.1.15,2013-07-10 10:04:00,
2013-07-10 06:09:00,72.2,71.3,29.79,SSE,159,2.0,5.0,97,0.00,,,0.00,Wunderground v.1.15,2013-07-10 10:09:00,
2013-07-10 06:14:00,72.4,71.5,29.79,SSW,196,0.0,5.0,97,0.00,,,0.00,Wunderground v.1.15,2013-07-10 10:14:00,
2013-07-10 06:19:00,72.5,71.6,29.79,South,175,0.0,5.0,97,0.00,,,0.00,Wunderground v.1.15,2013-07-10 10:19:00,
2013-07-10 06:24:00,72.6,71.4,29.79,SSW,192,0.0,5.0,96,0.00,,,0.00,Wunderground v.1.15,2013-07-10 10:24:00,
2013-07-10 06:29:00,72.7,71.5,29.79,SSE,150,0.0,5.0,96,0.00,,,0.00,Wunderground v.1.15,2013-07-10 10:29:00,
2013-07-10 06:34:00,72.8,71.6,29.79,SSW,193,0.0,4.0,96,0.00,,,0.00,Wunderground v.1.15,2013-07-10 10:34:00,
2013-07-10 06:39:00,72.8,71.6,29.79,SSW,205,0.0,5.0,96,0.00,,,0.00,Wunderground v.1.15,2013-07-10 10:39:00,
2013-07-10 06:44:00,72.9,71.7,29.79,SSE,161,0.0,3.0,96,0.00,,,0.00,Wunderground v.1.15,2013-07-10 10:44:00,
2013-07-10 06:49:00,72.9,71.7,29.78,South,169,0.0,3.0,96,0.00,,,0.00,Wunderground v.1.15,2013-07-10 10:49:00,
2013-07-10 06:54:00,73.0,71.8,29.78,South,182,1.0,3.0,96,0.00,,,0.00,Wunderground v.1.15,2013-07-10 10:54:00,
2013-07-10 06:59:00,73.1,71.9,29.78,SSW,205,1.0,3.0,96,0.00,,,0.00,Wunderground v.1.15,2013-07-10 10:59:00,
2013-07-10 07:04:00,73.2,72.0,29.78,SSE,159,0.0,5.0,96,0.00,,,0.00,Wunderground v.1.15,2013-07-10 11:04:00,
2013-07-10 07:09:00,73.4,72.2,29.78,WSW,239,2.0,5.0,96,0.00,,,0.00,Wunderground v.1.15,2013-07-10 11:09:00,
2013-07-10 07:14:00,73.6,72.1,29.78,South,188,2.0,5.0,95,0.00,,,0.00,Wunderground v.1.15,2013-07-10 11:14:00,
2013-07-10 07:19:00,73.7,72.2,29.78,SSE,153,2.0,5.0,95,0.00,,,0.00,Wunderground v.1.15,2013-07-10 11:19:00,
2013-07-10 07:24:00,73.8,72.3,29.78,SSE,153,0.0,1.0,95,0.00,,,0.00,Wunderground v.1.15,2013-07-10 11:24:00,
2013-07-10 07:29:00,73.9,72.4,29.78,SSW,193,2.0,3.0,95,0.00,,,0.00,Wunderground v.1.15,2013-07-10 11:29:00,
2013-07-10 07:34:00,74.0,72.2,29.77,South,179,3.0,10.0,94,0.00,,,0.00,Wunderground v.1.15,2013-07-10 11:34:00,
2013-07-10 07:39:00,74.3,72.5,29.77,SW,223,2.0,2.0,94,0.00,,,0.00,Wunderground v.1.15,2013-07-10 11:39:00,
2013-07-10 07:45:00,74.6,72.4,29.77,SSW,209,0.0,5.0,93,0.00,,,0.00,Wunderground v.1.15,2013-07-10 11:45:00,
2013-07-10 07:50:00,74.9,72.7,29.77,SW,221,3.0,3.0,93,0.00,,,0.00,Wunderground v.1.15,2013-07-10 11:50:00,
2013-07-10 07:55:00,75.2,72.7,29.78,WSW,250,0.0,11.0,92,0.00,,,0.00,Wunderground v.1.15,2013-07-10 11:55:00,
2013-07-10 08:00:00,75.6,72.8,29.77,SSW,196,3.0,3.0,91,0.00,,,0.00,Wunderground v.1.15,2013-07-10 12:00:00,
2013-07-10 08:05:00,75.9,72.8,29.78,SW,229,4.0,4.0,90,0.00,,,0.00,Wunderground v.1.15,2013-07-10 12:05:00,
2013-07-10 08:10:00,76.2,72.7,29.78,SSE,159,2.0,4.0,89,0.00,,,0.00,Wunderground v.1.15,2013-07-10 12:10:00,
2013-07-10 08:15:00,76.4,73.2,29.77,SSW,209,1.0,7.0,90,0.00,,,0.00,Wunderground v.1.15,2013-07-10 12:15:00,
2013-07-10 08:20:00,76.5,73.0,29.77,SSW,207,0.0,3.0,89,0.00,,,0.00,Wunderground v.1.15,2013-07-10 12:20:00,
2013-07-10 08:25:00,76.8,73.0,29.77,West,275,4.0,9.0,88,0.00,,,0.00,Wunderground v.1.15,2013-07-10 12:25:00,
2013-07-10 08:30:00,77.0,72.8,29.77,WSW,240,6.0,7.0,87,0.00,,,0.00,Wunderground v.1.15,2013-07-10 12:30:00,
2013-07-10 08:35:00,77.0,72.8,29.77,West,277,3.0,10.0,87,0.00,,,0.00,Wunderground v.1.15,2013-07-10 12:35:00,
2013-07-10 08:40:00,76.8,72.6,29.77,SW,215,5.0,10.0,87,0.00,,,0.00,Wunderground v.1.15,2013-07-10 12:40:00,
2013-07-10 08:45:00,76.8,72.6,29.77,West,267,5.0,10.0,87,0.00,,,0.00,Wunderground v.1.15,2013-07-10 12:45:00,
2013-07-10 08:50:00,76.7,72.5,29.77,SSW,198,1.0,4.0,87,0.00,,,0.00,Wunderground v.1.15,2013-07-10 12:50:00,
2013-07-10 08:55:00,76.7,72.5,29.76,South,176,1.0,9.0,87,0.00,,,0.00,Wunderground v.1.15,2013-07-10 12:55:00,
2013-07-10 09:00:00,76.6,72.8,29.77,WSW,238,2.0,4.0,88,0.00,,,0.00,Wunderground v.1.15,2013-07-10 13:00:00,
2013-07-10 09:05:00,76.7,72.5,29.77,West,267,4.0,7.0,87,0.00,,,0.00,Wunderground v.1.15,2013-07-10 13:05:00,
2013-07-10 09:10:00,76.9,72.7,29.77,South,182,2.0,4.0,87,0.00,,,0.00,Wunderground v.1.15,2013-07-10 13:10:00,
2013-07-10 09:16:00,76.9,72.7,29.76,West,265,4.0,6.0,87,0.00,,,0.00,Wunderground v.1.15,2013-07-10 13:16:00,
2013-07-10 09:21:00,76.9,72.4,29.76,WSW,251,2.0,9.0,86,0.00,,,0.00,Wunderground v.1.15,2013-07-10 13:21:00,
2013-07-10 09:26:00,77.1,72.9,29.76,South,173,6.0,9.0,87,0.00,,,0.00,Wunderground v.1.15,2013-07-10 13:26:00,
2013-07-10 09:31:00,77.4,72.9,29.76,SSW,209,2.0,7.0,86,0.00,,,0.00,Wunderground v.1.15,2013-07-10 13:31:00,
2013-07-10 09:36:00,77.5,73.0,29.76,SSW,210,2.0,7.0,86,0.00,,,0.00,Wunderground v.1.15,2013-07-10 13:36:00,
2013-07-10 09:41:00,77.5,72.6,29.76,West,265,7.0,7.0,85,0.00,,,0.00,Wunderground v.1.15,2013-07-10 13:41:00,
2013-07-10 09:46:00,77.5,72.6,29.76,SW,230,2.0,10.0,85,0.00,,,0.00,Wunderground v.1.15,2013-07-10 13:46:00,
2013-07-10 09:51:00,77.5,73.0,29.76,SSW,200,1.0,4.0,86,0.00,,,0.00,Wunderground v.1.15,2013-07-10 13:51:00,
2013-07-10 09:56:00,77.9,73.4,29.76,West,265,9.0,9.0,86,0.00,,,0.00,Wunderground v.1.15,2013-07-10 13:56:00,
2013-07-10 10:01:00,78.1,73.6,29.76,West,281,3.0,4.0,86,0.00,,,0.00,Wunderground v.1.15,2013-07-10 14:01:00,
2013-07-10 10:06:00,78.1,73.2,29.76,SW,219,1.0,9.0,85,0.00,,,0.00,Wunderground v.1.15,2013-07-10 14:06:00,
2013-07-10 10:11:00,78.0,73.1,29.76,SW,217,1.0,3.0,85,0.00,,,0.00,Wunderground v.1.15,2013-07-10 14:11:00,
2013-07-10 10:16:00,78.0,73.1,29.76,SSW,193,5.0,11.0,85,0.00,,,0.00,Wunderground v.1.15,2013-07-10 14:16:00,
2013-07-10 10:21:00,78.0,73.1,29.76,WSW,252,3.0,5.0,85,0.00,,,0.00,Wunderground v.1.15,2013-07-10 14:21:00,
2013-07-10 10:26:00,78.2,73.3,29.76,SSW,213,4.0,8.0,85,0.00,,,0.00,Wunderground v.1.15,2013-07-10 14:26:00,
2013-07-10 10:31:00,78.3,73.4,29.76,NW,314,2.0,8.0,85,0.00,,,0.00,Wunderground v.1.15,2013-07-10 14:31:00,
2013-07-10 10:36:00,78.5,73.6,29.76,South,184,3.0,8.0,85,0.00,,,0.00,Wunderground v.1.15,2013-07-10 14:36:00,
2013-07-10 10:41:00,78.7,73.5,29.76,West,261,3.0,5.0,84,0.00,,,0.00,Wunderground v.1.15,2013-07-10 14:41:00,
2013-07-10 10:46:00,78.8,73.6,29.76,West,261,2.0,8.0,84,0.00,,,0.00,Wunderground v.1.15,2013-07-10 14:46:00,
2013-07-10 10:51:00,79.0,73.7,29.76,West,260,0.0,5.0,84,0.00,,,0.00,Wunderground v.1.15,2013-07-10 14:51:00,
2013-07-10 10:56:00,79.1,73.5,29.75,West,278,4.0,7.0,83,0.00,,,0.00,Wunderground v.1.15,2013-07-10 14:56:00,
2013-07-10 11:01:00,79.1,73.5,29.75,SSW,203,3.0,5.0,83,0.00,,,0.00,Wunderground v.1.15,2013-07-10 15:01:00,
2013-07-10 11:06:00,79.4,74.1,29.76,South,191,1.0,5.0,84,0.00,,,0.00,Wunderground v.1.15,2013-07-10 15:06:00,
2013-07-10 11:11:00,79.5,74.2,29.75,SW,231,4.0,6.0,84,0.00,,,0.00,Wunderground v.1.15,2013-07-10 15:11:00,
2013-07-10 11:16:00,79.4,73.8,29.75,WNW,282,4.0,10.0,83,0.00,,,0.00,Wunderground v.1.15,2013-07-10 15:16:00,
2013-07-10 11:22:00,79.3,73.3,29.75,WNW,299,2.0,8.0,82,0.00,,,0.00,Wunderground v.1.15,2013-07-10 15:22:00,
2013-07-10 11:27:00,79.3,73.3,29.75,WSW,244,1.0,8.0,82,0.00,,,0.00,Wunderground v.1.15,2013-07-10 15:27:00,
2013-07-10 11:32:00,79.4,73.8,29.75,SSW,205,1.0,4.0,83,0.00,,,0.00,Wunderground v.1.15,2013-07-10 15:32:00,
2013-07-10 11:37:00,79.4,73.4,29.75,WSW,253,5.0,8.0,82,0.00,,,0.00,Wunderground v.1.15,2013-07-10 15:37:00,
2013-07-10 11:42:00,79.5,73.5,29.75,SSW,211,3.0,10.0,82,0.00,,,0.00,Wunderground v.1.15,2013-07-10 15:42:00,
2013-07-10 11:47:00,80.2,74.2,29.74,SSW,200,5.0,10.0,82,0.00,,,0.00,Wunderground v.1.15,2013-07-10 15:47:00,
2013-07-10 11:52:00,81.0,74.2,29.74,WNW,284,2.0,6.0,80,0.00,,,0.00,Wunderground v.1.15,2013-07-10 15:52:00,
2013-07-10 11:57:00,81.6,74.5,29.74,West,266,1.0,7.0,79,0.00,,,0.00,Wunderground v.1.15,2013-07-10 15:57:00,
2013-07-10 12:02:00,81.9,74.0,29.74,SW,215,3.0,6.0,77,0.00,,,0.00,Wunderground v.1.15,2013-07-10 16:02:00,
2013-07-10 12:07:00,81.9,73.2,29.73,SSW,195,5.0,10.0,75,0.00,,,0.00,Wunderground v.1.15,2013-07-10 16:07:00,
2013-07-10 12:12:00,82.0,73.3,29.74,SSW,192,3.0,5.0,75,0.00,,,0.00,Wunderground v.1.15,2013-07-10 16:12:00,
2013-07-10 12:17:00,82.2,73.5,29.74,WSW,250,1.0,8.0,75,0.00,,,0.00,Wunderground v.1.15,2013-07-10 16:17:00,
2013-07-10 12:22:00,82.5,74.2,29.74,West,259,6.0,7.0,76,0.00,,,0.00,Wunderground v.1.15,2013-07-10 16:22:00,
2013-07-10 12:27:00,83.0,74.3,29.74,SSE,150,1.0,9.0,75,0.00,,,0.00,Wunderground v.1.15,2013-07-10 16:27:00,
2013-07-10 12:32:00,83.6,74.8,29.73,South,182,2.0,7.0,75,0.00,,,0.00,Wunderground v.1.15,2013-07-10 16:32:00,
2013-07-10 12:37:00,84.0,75.2,29.73,NNE,26,2.0,10.0,75,0.00,,,0.00,Wunderground v.1.15,2013-07-10 16:37:00,
2013-07-10 12:42:00,83.6,74.0,29.73,WSW,253,5.0,7.0,73,0.00,,,0.00,Wunderground v.1.15,2013-07-10 16:42:00,
2013-07-10 12:47:00,83.3,74.9,29.73,South,190,0.0,7.0,76,0.00,,,0.00,Wunderground v.1.15,2013-07-10 16:47:00,
2013-07-10 12:52:00,83.8,75.4,29.73,SW,217,2.0,4.0,76,0.00,,,0.00,Wunderground v.1.15,2013-07-10 16:52:00,
2013-07-10 12:57:00,84.5,74.9,29.73,South,185,4.0,7.0,73,0.00,,,0.00,Wunderground v.1.15,2013-07-10 16:57:00,
2013-07-10 13:02:00,84.7,75.5,29.73,SW,215,11.0,11.0,74,0.00,,,0.00,Wunderground v.1.15,2013-07-10 17:02:00,
2013-07-10 13:07:00,84.4,74.4,29.73,NNW,334,9.0,14.0,72,0.00,,,0.00,Wunderground v.1.15,2013-07-10 17:07:00,
2013-07-10 13:12:00,84.8,75.6,29.73,West,263,0.0,5.0,74,0.00,,,0.00,Wunderground v.1.15,2013-07-10 17:12:00,
2013-07-10 13:17:00,85.1,74.6,29.73,West,267,4.0,11.0,71,0.00,,,0.00,Wunderground v.1.15,2013-07-10 17:17:00,
2013-07-10 13:22:00,85.2,74.7,29.72,WNW,287,7.0,8.0,71,0.00,,,0.00,Wunderground v.1.15,2013-07-10 17:22:00,
2013-07-10 13:27:00,85.3,75.7,29.72,SSW,213,6.0,8.0,73,0.00,,,0.00,Wunderground v.1.15,2013-07-10 17:27:00,
2013-07-10 13:32:00,85.1,75.1,29.72,WSW,244,1.0,8.0,72,0.00,,,0.00,Wunderground v.1.15,2013-07-10 17:32:00,
2013-07-10 13:37:00,84.6,75.4,29.72,WNW,292,4.0,11.0,74,0.00,,,0.00,Wunderground v.1.15,2013-07-10 17:37:00,
2013-07-10 13:42:00,84.4,74.8,29.72,WSW,237,3.0,7.0,73,0.00,,,0.00,Wunderground v.1.15,2013-07-10 17:42:00,
2013-07-10 13:48:00,84.6,75.0,29.72,WNW,296,4.0,7.0,73,0.00,,,0.00,Wunderground v.1.15,2013-07-10 17:48:00,
2013-07-10 13:53:00,84.9,75.3,29.72,South,182,5.0,8.0,73,0.00,,,0.00,Wunderground v.1.15,2013-07-10 17:53:00,
2013-07-10 13:58:00,84.9,74.9,29.72,West,277,4.0,10.0,72,0.00,,,0.00,Wunderground v.1.15,2013-07-10 17:58:00,
2013-07-10 14:03:00,85.3,74.8,29.71,SW,223,3.0,7.0,71,0.00,,,0.00,Wunderground v.1.15,2013-07-10 18:03:00,
2013-07-10 14:08:00,86.0,74.6,29.71,SW,225,3.0,9.0,69,0.00,,,0.00,Wunderground v.1.15,2013-07-10 18:08:00,
2013-07-10 14:13:00,85.9,74.5,29.71,SSW,201,4.0,10.0,69,0.00,,,0.00,Wunderground v.1.15,2013-07-10 18:13:00,
2013-07-10 14:18:00,86.1,75.2,29.71,West,278,0.0,10.0,70,0.00,,,0.00,Wunderground v.1.15,2013-07-10 18:18:00,
2013-07-10 14:23:00,86.2,74.0,29.71,WNW,285,3.0,11.0,67,0.00,,,0.00,Wunderground v.1.15,2013-07-10 18:23:00,
2013-07-10 14:28:00,86.1,75.2,29.71,WNW,295,5.0,11.0,70,0.00,,,0.00,Wunderground v.1.15,2013-07-10 18:28:00,
2013-07-10 14:33:00,85.8,74.4,29.71,West,280,3.0,9.0,69,0.00,,,0.00,Wunderground v.1.15,2013-07-10 18:33:00,
2013-07-10 14:38:00,85.8,74.4,29.70,NNW,333,6.0,9.0,69,0.00,,,0.00,Wunderground v.1.15,2013-07-10 18:38:00,
2013-07-10 14:43:00,86.1,75.2,29.70,West,275,4.0,10.0,70,0.00,,,0.00,Wunderground v.1.15,2013-07-10 18:43:00,
2013-07-10 14:48:00,86.3,75.4,29.71,West,273,4.0,10.0,70,0.00,,,0.00,Wunderground v.1.15,2013-07-10 18:48:00,
2013-07-10 14:53:00,87.0,75.6,29.70,NNE,30,3.0,13.0,69,0.00,,,0.00,Wunderground v.1.15,2013-07-10 18:53:00,
2013-07-10 14:58:00,87.4,76.4,29.70,SSW,200,4.0,13.0,70,0.00,,,0.00,Wunderground v.1.15,2013-07-10 18:58:00,
2013-07-10 15:03:00,87.2,74.9,29.70,West,275,3.0,11.0,67,0.00,,,0.00,Wunderground v.1.15,2013-07-10 19:03:00,
2013-07-10 15:08:00,86.7,74.9,29.70,SSW,213,5.0,11.0,68,0.00,,,0.00,Wunderground v.1.15,2013-07-10 19:08:00,
2013-07-10 15:13:00,86.9,75.9,29.69,WSW,252,1.0,7.0,70,0.00,,,0.00,Wunderground v.1.15,2013-07-10 19:13:00,
2013-07-10 15:19:00,87.2,74.9,29.69,WSW,237,3.0,7.0,67,0.00,,,0.00,Wunderground v.1.15,2013-07-10 19:19:00,
2013-07-10 15:24:00,87.4,74.6,29.69,WSW,251,6.0,8.0,66,0.00,,,0.00,Wunderground v.1.15,2013-07-10 19:24:00,
2013-07-10 15:29:00,87.6,74.4,29.69,West,273,4.0,10.0,65,0.00,,,0.00,Wunderground v.1.15,2013-07-10 19:29:00,
2013-07-10 15:34:00,87.2,74.5,29.69,West,268,7.0,11.0,66,0.00,,,0.00,Wunderground v.1.15,2013-07-10 19:34:00,
2013-07-10 15:39:00,86.8,74.1,29.69,WNW,300,2.0,14.0,66,0.00,,,0.00,Wunderground v.1.15,2013-07-10 19:39:00,
2013-07-10 15:44:00,87.1,75.3,29.69,WSW,249,4.0,7.0,68,0.00,,,0.00,Wunderground v.1.15,2013-07-10 19:44:00,
2013-07-10 15:49:00,87.6,74.4,29.68,NW,326,3.0,8.0,65,0.00,,,0.00,Wunderground v.1.15,2013-07-10 19:49:00,
2013-07-10 15:54:00,87.1,74.4,29.68,WNW,303,3.0,12.0,66,0.00,,,0.00,Wunderground v.1.15,2013-07-10 19:54:00,
2013-07-10 15:59:00,86.7,75.3,29.68,West,266,3.0,12.0,69,0.00,,,0.00,Wunderground v.1.15,2013-07-10 19:59:00,
2013-07-10 16:04:00,86.8,75.4,29.68,WSW,246,0.0,9.0,69,0.00,,,0.00,Wunderground v.1.15,2013-07-10 20:04:00,
2013-07-10 16:09:00,87.4,75.1,29.68,NNW,329,3.0,9.0,67,0.00,,,0.00,Wunderground v.1.15,2013-07-10 20:09:00,
2013-07-10 16:14:00,87.3,75.9,29.68,SSW,194,4.0,11.0,69,0.00,,,0.00,Wunderground v.1.15,2013-07-10 20:14:00,
2013-07-10 16:19:00,87.2,75.3,29.68,SSW,209,7.0,11.0,68,0.00,,,0.00,Wunderground v.1.15,2013-07-10 20:19:00,
2013-07-10 16:24:00,87.3,74.5,29.68,West,272,5.0,15.0,66,0.00,,,0.00,Wunderground v.1.15,2013-07-10 20:24:00,
2013-07-10 16:29:00,86.7,74.0,29.68,WSW,248,3.0,15.0,66,0.00,,,0.00,Wunderground v.1.15,2013-07-10 20:29:00,
2013-07-10 16:34:00,86.3,73.6,29.68,WSW,250,4.0,7.0,66,0.00,,,0.00,Wunderground v.1.15,2013-07-10 20:34:00,
2013-07-10 16:39:00,85.9,74.1,29.67,SW,225,5.0,7.0,68,0.00,,,0.00,Wunderground v.1.15,2013-07-10 20:39:00,
2013-07-10 16:44:00,85.9,74.5,29.67,WNW,295,5.0,6.0,69,0.00,,,0.00,Wunderground v.1.15,2013-07-10 20:44:00,
2013-07-10 16:49:00,86.0,74.2,29.68,WSW,250,4.0,8.0,68,0.00,,,0.00,Wunderground v.1.15,2013-07-10 20:49:00,
2013-07-10 16:54:00,85.8,73.1,29.68,West,277,5.0,17.0,66,0.00,,,0.00,Wunderground v.1.15,2013-07-10 20:54:00,
2013-07-10 16:59:00,85.5,73.3,29.68,WNW,296,7.0,17.0,67,0.00,,,0.00,Wunderground v.1.15,2013-07-10 20:59:00,
2013-07-10 17:04:00,85.4,73.6,29.68,SSW,206,5.0,11.0,68,0.00,,,0.00,Wunderground v.1.15,2013-07-10 21:04:00,
2013-07-10 17:09:00,85.7,74.8,29.68,West,267,1.0,11.0,70,0.00,,,0.00,Wunderground v.1.15,2013-07-10 21:09:00,
2013-07-10 17:14:00,86.1,74.3,29.68,South,191,3.0,13.0,68,0.00,,,0.00,Wunderground v.1.15,2013-07-10 21:14:00,
2013-07-10 17:19:00,86.1,73.9,29.68,North,5,0.0,13.0,67,0.00,,,0.00,Wunderground v.1.15,2013-07-10 21:19:00,
2013-07-10 17:24:00,85.8,73.6,29.68,West,272,2.0,7.0,67,0.00,,,0.00,Wunderground v.1.15,2013-07-10 21:24:00,
2013-07-10 17:29:00,85.9,74.1,29.68,West,265,3.0,7.0,68,0.00,,,0.00,Wunderground v.1.15,2013-07-10 21:29:00,
2013-07-10 17:34:00,85.9,72.8,29.68,SW,236,4.0,9.0,65,0.00,,,0.00,Wunderground v.1.15,2013-07-10 21:34:00,
2013-07-10 17:40:00,85.6,73.8,29.68,WSW,252,2.0,3.0,68,0.00,,,0.00,Wunderground v.1.15,2013-07-10 21:40:00,
2013-07-10 17:45:00,85.5,74.2,29.68,SW,229,4.0,5.0,69,0.00,,,0.00,Wunderground v.1.15,2013-07-10 21:45:00,
2013-07-10 17:50:00,85.4,73.6,29.68,NW,325,2.0,2.0,68,0.00,,,0.00,Wunderground v.1.15,2013-07-10 21:50:00,
2013-07-10 17:55:00,85.1,73.8,29.69,WSW,258,3.0,6.0,69,0.00,,,0.00,Wunderground v.1.15,2013-07-10 21:55:00,
2013-07-10 18:00:00,84.5,73.6,29.69,SW,228,3.0,5.0,70,0.00,,,0.00,Wunderground v.1.15,2013-07-10 22:00:00,
2013-07-10 18:05:00,84.2,74.2,29.69,SW,235,2.0,5.0,72,0.00,,,0.00,Wunderground v.1.15,2013-07-10 22:05:00,
2013-07-10 18:10:00,83.9,73.5,29.70,North,11,4.0,8.0,71,0.00,,,0.00,Wunderground v.1.15,2013-07-10 22:10:00,
2013-07-10 18:15:00,83.6,72.8,29.70,WSW,238,1.0,8.0,70,0.00,,,0.00,Wunderground v.1.15,2013-07-10 22:15:00,
2013-07-10 18:20:00,83.4,73.0,29.70,South,189,1.0,6.0,71,0.00,,,0.00,Wunderground v.1.15,2013-07-10 22:20:00,
2013-07-10 18:26:00,83.3,73.3,29.69,NW,311,3.0,7.0,72,0.00,,,0.00,Wunderground v.1.15,2013-07-10 22:26:00,
2013-07-10 18:31:00,83.2,73.2,29.69,WNW,282,3.0,3.0,72,0.00,,,0.00,Wunderground v.1.15,2013-07-10 22:31:00,
2013-07-10 18:36:00,83.1,72.7,29.69,South,190,2.0,7.0,71,0.00,,,0.00,Wunderground v.1.15,2013-07-10 22:36:00,
2013-07-10 18:41:00,82.9,72.5,29.69,WNW,298,1.0,7.0,71,0.00,,,0.00,Wunderground v.1.15,2013-07-10 22:41:00,
2013-07-10 18:46:00,82.9,72.9,29.69,WSW,254,2.0,7.0,72,0.00,,,0.00,Wunderground v.1.15,2013-07-10 22:46:00,
2013-07-10 18:51:00,82.8,72.4,29.69,West,281,2.0,4.0,71,0.00,,,0.00,Wunderground v.1.15,2013-07-10 22:51:00,
2013-07-10 18:56:00,82.7,73.2,29.68,South,180,2.0,5.0,73,0.00,,,0.00,Wunderground v.1.15,2013-07-10 22:56:00,
2013-07-10 19:01:00,82.6,72.7,29.68,West,275,0.0,2.0,72,0.00,,,0.00,Wunderground v.1.15,2013-07-10 23:01:00,
2013-07-10 19:06:00,82.5,72.6,29.67,WSW,243,3.0,4.0,72,0.00,,,0.00,Wunderground v.1.15,2013-07-10 23:06:00,
2013-07-10 19:11:00,82.3,72.0,29.67,SW,234,1.0,7.0,71,0.00,,,0.00,Wunderground v.1.15,2013-07-10 23:11:00,
2013-07-10 19:16:00,82.2,72.3,29.66,SSW,198,0.0,7.0,72,0.00,,,0.00,Wunderground v.1.15,2013-07-10 23:16:00,
2013-07-10 19:21:00,82.1,72.6,29.66,SSW,204,1.0,1.0,73,0.00,,,0.00,Wunderground v.1.15,2013-07-10 23:21:00,
2013-07-10 19:26:00,82.1,73.0,29.66,WSW,242,3.0,4.0,74,0.00,,,0.00,Wunderground v.1.15,2013-07-10 23:26:00,
2013-07-10 19:31:00,82.0,72.5,29.67,NNW,335,0.0,4.0,73,0.00,,,0.00,Wunderground v.1.15,2013-07-10 23:31:00,
2013-07-10 19:36:00,82.0,72.9,29.67,SW,227,0.0,4.0,74,0.00,,,0.00,Wunderground v.1.15,2013-07-10 23:36:00,
2013-07-10 19:41:00,81.8,73.1,29.68,West,263,1.0,3.0,75,0.00,,,0.00,Wunderground v.1.15,2013-07-10 23:41:00,
2013-07-10 19:46:00,81.6,72.9,29.69,SW,229,3.0,5.0,75,0.00,,,0.00,Wunderground v.1.15,2013-07-10 23:46:00,
2013-07-10 19:51:00,81.5,72.8,29.69,South,184,0.0,5.0,75,0.00,,,0.00,Wunderground v.1.15,2013-07-10 23:51:00,
2013-07-10 19:56:00,81.4,73.1,29.69,WSW,251,3.0,5.0,76,0.00,,,0.00,Wunderground v.1.15,2013-07-10 23:56:00,
2013-07-10 20:01:00,81.5,73.2,29.69,SW,226,4.0,4.0,76,0.00,,,0.00,Wunderground v.1.15,2013-07-11 00:01:00,
2013-07-10 20:06:00,81.4,73.1,29.69,South,174,0.0,5.0,76,0.00,,,0.00,Wunderground v.1.15,2013-07-11 00:06:00,
2013-07-10 20:12:00,81.3,73.4,29.69,SW,221,0.0,3.0,77,0.00,,,0.00,Wunderground v.1.15,2013-07-11 00:12:00,
2013-07-10 20:17:00,81.2,73.3,29.70,WSW,252,2.0,7.0,77,0.00,,,0.00,Wunderground v.1.15,2013-07-11 00:17:00,
2013-07-10 20:22:00,81.2,73.3,29.70,WNW,289,1.0,7.0,77,0.00,,,0.00,Wunderground v.1.15,2013-07-11 00:22:00,
2013-07-10 20:27:00,81.3,73.4,29.70,SSW,213,2.0,9.0,77,0.00,,,0.00,Wunderground v.1.15,2013-07-11 00:27:00,
2013-07-10 20:32:00,80.9,73.8,29.70,West,261,3.0,6.0,79,0.24,,,0.02,Wunderground v.1.15,2013-07-11 00:32:00,
2013-07-10 20:37:00,79.6,72.5,29.71,WSW,250,6.0,9.0,79,0.10,,,0.02,Wunderground v.1.15,2013-07-11 00:37:00,
2013-07-10 20:42:00,78.2,70.4,29.71,NNW,335,2.0,5.0,77,0.05,,,0.02,Wunderground v.1.15,2013-07-11 00:42:00,
2013-07-10 20:47:00,77.5,68.6,29.70,West,261,7.0,11.0,74,0.04,,,0.02,Wunderground v.1.15,2013-07-11 00:47:00,
2013-07-10 20:52:00,77.1,67.8,29.71,West,271,0.0,8.0,73,0.00,,,0.02,Wunderground v.1.15,2013-07-11 00:52:00,
2013-07-10 20:57:00,76.9,67.6,29.71,SW,221,2.0,8.0,73,0.00,,,0.02,Wunderground v.1.15,2013-07-11 00:57:00,
2013-07-10 21:02:00,76.7,66.6,29.72,SSW,196,4.0,10.0,71,0.00,,,0.02,Wunderground v.1.15,2013-07-11 01:02:00,
2013-07-10 21:07:00,76.9,66.4,29.71,SW,230,4.0,10.0,70,0.00,,,0.02,Wunderground v.1.15,2013-07-11 01:07:00,
2013-07-10 21:12:00,76.9,66.8,29.72,SW,232,0.0,9.0,71,0.00,,,0.02,Wunderground v.1.15,2013-07-11 01:12:00,
2013-07-10 21:17:00,76.7,66.2,29.72,SSW,194,7.0,9.0,70,0.00,,,0.02,Wunderground v.1.15,2013-07-11 01:17:00,
2013-07-10 21:22:00,76.7,66.6,29.72,South,180,4.0,7.0,71,0.00,,,0.02,Wunderground v.1.15,2013-07-11 01:22:00,
2013-07-10 21:27:00,76.6,66.9,29.73,SSW,206,5.0,9.0,72,0.00,,,0.02,Wunderground v.1.15,2013-07-11 01:27:00,
2013-07-10 21:32:00,76.5,66.8,29.73,SW,222,5.0,6.0,72,0.00,,,0.02,Wunderground v.1.15,2013-07-11 01:32:00,
2013-07-10 21:37:00,76.4,66.3,29.74,SW,217,4.0,8.0,71,0.00,,,0.02,Wunderground v.1.15,2013-07-11 01:37:00,
2013-07-10 21:42:00,76.4,66.3,29.74,SSW,208,3.0,7.0,71,0.00,,,0.02,Wunderground v.1.15,2013-07-11 01:42:00,
2013-07-10 21:47:00,76.2,66.5,29.74,WSW,242,2.0,7.0,72,0.00,,,0.02,Wunderground v.1.15,2013-07-11 01:47:00,
2013-07-10 21:52:00,76.1,67.6,29.74,WNW,288,1.0,7.0,75,0.00,,,0.02,Wunderground v.1.15,2013-07-11 01:52:00,
2013-07-10 21:57:00,76.0,66.7,29.75,West,277,2.0,10.0,73,0.00,,,0.02,Wunderground v.1.15,2013-07-11 01:57:00,
2013-07-10 22:02:00,75.9,67.0,29.75,WNW,292,3.0,8.0,74,0.00,,,0.02,Wunderground v.1.15,2013-07-11 02:02:00,
2013-07-10 22:07:00,75.9,66.6,29.75,SW,217,1.0,8.0,73,0.00,,,0.02,Wunderground v.1.15,2013-07-11 02:07:00,
2013-07-10 22:12:00,75.9,67.0,29.75,SSW,194,3.0,5.0,74,0.00,,,0.02,Wunderground v.1.15,2013-07-11 02:12:00,
2013-07-10 22:17:00,75.9,66.6,29.76,West,281,5.0,9.0,73,0.00,,,0.02,Wunderground v.1.15,2013-07-11 02:17:00,
2013-07-10 22:22:00,75.9,66.2,29.76,SW,215,7.0,12.0,72,0.00,,,0.02,Wunderground v.1.15,2013-07-11 02:22:00,
2013-07-10 22:27:00,76.0,66.3,29.76,SW,218,2.0,12.0,72,0.00,,,0.02,Wunderground v.1.15,2013-07-11 02:27:00,
2013-07-10 22:32:00,76.1,66.4,29.76,NNW,346,4.0,9.0,72,0.00,,,0.02,Wunderground v.1.15,2013-07-11 02:32:00,
2013-07-10 22:37:00,76.0,66.3,29.76,SSW,199,4.0,12.0,72,0.00,,,0.02,Wunderground v.1.15,2013-07-11 02:37:00,
2013-07-10 22:42:00,76.1,66.4,29.76,South,190,2.0,11.0,72,0.00,,,0.02,Wunderground v.1.15,2013-07-11 02:42:00,
2013-07-10 22:48:00,76.0,65.9,29.76,WSW,253,4.0,11.0,71,0.00,,,0.02,Wunderground v.1.15,2013-07-11 02:48:00,
2013-07-10 22:53:00,76.1,66.0,29.76,SW,216,2.0,10.0,71,0.00,,,0.02,Wunderground v.1.15,2013-07-11 02:53:00,
2013-07-10 22:58:00,76.1,66.0,29.76,WSW,243,2.0,11.0,71,0.00,,,0.02,Wunderground v.1.15,2013-07-11 02:58:00,
2013-07-10 23:03:00,76.0,65.9,29.76,WNW,288,5.0,6.0,71,0.00,,,0.02,Wunderground v.1.15,2013-07-11 03:03:00,
2013-07-10 23:08:00,75.9,66.2,29.76,NE,40,3.0,16.0,72,0.00,,,0.02,Wunderground v.1.15,2013-07-11 03:08:00,
2013-07-10 23:13:00,75.8,66.1,29.76,WSW,241,4.0,7.0,72,0.00,,,0.02,Wunderground v.1.15,2013-07-11 03:13:00,
2013-07-10 23:18:00,75.6,65.9,29.76,SW,226,10.0,10.0,72,0.00,,,0.02,Wunderground v.1.15,2013-07-11 03:18:00,
2013-07-10 23:23:00,75.7,66.0,29.76,West,265,1.0,7.0,72,0.00,,,0.02,Wunderground v.1.15,2013-07-11 03:23:00,
2013-07-10 23:28:00,75.7,66.0,29.77,SW,227,2.0,13.0,72,0.00,,,0.02,Wunderground v.1.15,2013-07-11 03:28:00,
2013-07-10 23:33:00,75.7,66.4,29.77,WNW,295,6.0,8.0,73,0.00,,,0.02,Wunderground v.1.15,2013-07-11 03:33:00,
2013-07-10 23:38:00,75.5,66.6,29.77,West,277,4.0,8.0,74,0.00,,,0.02,Wunderground v.1.15,2013-07-11 03:38:00,
2013-07-10 23:43:00,75.5,66.6,29.77,NNW,342,1.0,6.0,74,0.00,,,0.02,Wunderground v.1.15,2013-07-11 03:43:00,
2013-07-10 23:48:00,75.5,66.6,29.77,NW,315,3.0,8.0,74,0.00,,,0.02,Wunderground v.1.15,2013-07-11 03:48:00,
2013-07-10 23:53:00,75.4,66.5,29.77,WNW,301,4.0,10.0,74,0.00,,,0.02,Wunderground v.1.15,2013-07-11 03:53:00,
2013-07-10 23:58:00,75.3,66.8,29.78,NNW,347,5.0,10.0,75,0.00,,,0.02,Wunderground v.1.15,2013-07-11 03:58:00,